sensor_id;sensor_type;location;lat;lon;timestamp;pressure;altitude;pressure_sealevel;temperature;humidity
14253;BME280;7210;51.502;10.722;2023-04-26T00:02:00;99504.28;;;2.10;99.39
14253;BME280;7210;51.502;10.722;2023-04-26T00:04:32;99509.16;;;2.13;99.58
14253;BME280;7210;51.502;10.722;2023-04-26T00:07:00;99506.19;;;2.16;99.31
14253;BME280;7210;51.502;10.722;2023-04-26T00:09:28;99518.88;;;2.19;99.47
14253;BME280;7210;51.502;10.722;2023-04-26T00:11:56;99515.00;;;2.15;99.68
14253;BME280;7210;51.502;10.722;2023-04-26T00:14:24;99515.00;;;2.15;99.67
14253;BME280;7210;51.502;10.722;2023-04-26T00:16:51;99515.81;;;2.16;99.76
14253;BME280;7210;51.502;10.722;2023-04-26T00:19:18;99521.84;;;2.16;99.81
14253;BME280;7210;51.502;10.722;2023-04-26T00:21:47;99524.28;;;2.18;100.00
14253;BME280;7210;51.502;10.722;2023-04-26T00:24:14;99515.63;;;2.17;100.00
14253;BME280;7210;51.502;10.722;2023-04-26T00:26:41;99522.00;;;2.15;99.93
14253;BME280;7210;51.502;10.722;2023-04-26T00:29:09;99525.25;;;2.17;100.00
14253;BME280;7210;51.502;10.722;2023-04-26T00:31:36;99525.91;;;2.19;100.00
14253;BME280;7210;51.502;10.722;2023-04-26T00:34:03;99517.63;;;2.15;100.00
14253;BME280;7210;51.502;10.722;2023-04-26T00:36:31;99520.84;;;2.17;100.00
14253;BME280;7210;51.502;10.722;2023-04-26T00:38:59;99518.59;;;2.14;100.00
14253;BME280;7210;51.502;10.722;2023-04-26T00:41:27;99520.56;;;2.12;100.00
14253;BME280;7210;51.502;10.722;2023-04-26T00:43:54;99524.16;;;2.11;100.00
14253;BME280;7210;51.502;10.722;2023-04-26T00:46:22;99525.44;;;2.15;100.00
14253;BME280;7210;51.502;10.722;2023-04-26T00:48:50;99505.97;;;2.03;100.00
14253;BME280;7210;51.502;10.722;2023-04-26T00:51:17;99496.28;;;1.89;100.00
14253;BME280;7210;51.502;10.722;2023-04-26T00:53:45;99490.66;;;1.78;100.00
14253;BME280;7210;51.502;10.722;2023-04-26T00:56:15;99485.88;;;1.67;100.00
14253;BME280;7210;51.502;10.722;2023-04-26T00:58:44;99478.78;;;1.53;100.00
14253;BME280;7210;51.502;10.722;2023-04-26T01:01:12;99494.41;;;1.53;100.00
14253;BME280;7210;51.502;10.722;2023-04-26T01:03:39;99490.72;;;1.47;100.00
14253;BME280;7210;51.502;10.722;2023-04-26T01:06:07;99494.97;;;1.40;100.00
14253;BME280;7210;51.502;10.722;2023-04-26T01:08:36;99509.63;;;1.41;100.00
14253;BME280;7210;51.502;10.722;2023-04-26T01:11:04;99510.25;;;1.43;100.00
14253;BME280;7210;51.502;10.722;2023-04-26T01:13:33;99521.50;;;1.44;100.00
14253;BME280;7210;51.502;10.722;2023-04-26T01:16:01;99514.53;;;1.36;100.00
14253;BME280;7210;51.502;10.722;2023-04-26T01:18:29;99513.25;;;1.32;100.00
14253;BME280;7210;51.502;10.722;2023-04-26T01:20:56;99513.91;;;1.26;100.00
14253;BME280;7210;51.502;10.722;2023-04-26T01:23:28;99519.47;;;1.23;100.00
14253;BME280;7210;51.502;10.722;2023-04-26T01:25:56;99520.78;;;1.19;100.00
14253;BME280;7210;51.502;10.722;2023-04-26T01:28:23;99515.28;;;1.14;100.00
14253;BME280;7210;51.502;10.722;2023-04-26T01:30:50;99522.78;;;1.09;100.00
14253;BME280;7210;51.502;10.722;2023-04-26T01:33:17;99524.75;;;1.07;100.00
14253;BME280;7210;51.502;10.722;2023-04-26T01:35:44;99541.97;;;1.08;100.00
14253;BME280;7210;51.502;10.722;2023-04-26T01:38:11;99536.44;;;1.11;100.00
14253;BME280;7210;51.502;10.722;2023-04-26T01:40:40;99539.34;;;1.16;100.00
14253;BME280;7210;51.502;10.722;2023-04-26T01:43:15;99542.78;;;1.17;100.00
14253;BME280;7210;51.502;10.722;2023-04-26T01:45:46;99547.13;;;1.24;100.00
14253;BME280;7210;51.502;10.722;2023-04-26T01:48:29;99546.78;;;1.27;100.00
14253;BME280;7210;51.502;10.722;2023-04-26T01:50:57;99541.25;;;1.30;100.00
14253;BME280;7210;51.502;10.722;2023-04-26T01:53:24;99537.06;;;1.21;100.00
14253;BME280;7210;51.502;10.722;2023-04-26T01:55:53;99533.00;;;1.19;100.00
14253;BME280;7210;51.502;10.722;2023-04-26T01:58:21;99537.38;;;1.18;100.00
14253;BME280;7210;51.502;10.722;2023-04-26T02:00:48;99540.00;;;1.10;100.00
14253;BME280;7210;51.502;10.722;2023-04-26T02:03:16;99535.31;;;1.06;100.00
14253;BME280;7210;51.502;10.722;2023-04-26T02:08:45;99547.53;;;1.05;100.00
14253;BME280;7210;51.502;10.722;2023-04-26T02:11:15;99540.38;;;1.07;100.00
14253;BME280;7210;51.502;10.722;2023-04-26T02:13:42;99541.34;;;1.06;100.00
14253;BME280;7210;51.502;10.722;2023-04-26T02:19:31;99541.38;;;0.98;100.00
14253;BME280;7210;51.502;10.722;2023-04-26T02:21:58;99532.59;;;0.91;100.00
14253;BME280;7210;51.502;10.722;2023-04-26T02:24:26;99532.28;;;0.86;100.00
14253;BME280;7210;51.502;10.722;2023-04-26T02:26:55;99536.22;;;0.82;100.00
14253;BME280;7210;51.502;10.722;2023-04-26T02:29:26;99533.28;;;0.77;100.00
14253;BME280;7210;51.502;10.722;2023-04-26T02:31:53;99533.63;;;0.74;100.00
14253;BME280;7210;51.502;10.722;2023-04-26T02:34:20;99541.06;;;0.85;100.00
14253;BME280;7210;51.502;10.722;2023-04-26T02:36:47;99544.97;;;0.89;100.00
14253;BME280;7210;51.502;10.722;2023-04-26T02:39:15;99551.63;;;0.92;100.00
14253;BME280;7210;51.502;10.722;2023-04-26T02:41:42;99546.91;;;0.87;100.00
14253;BME280;7210;51.502;10.722;2023-04-26T02:44:11;99535.88;;;0.85;100.00
14253;BME280;7210;51.502;10.722;2023-04-26T02:46:39;99546.09;;;0.95;100.00
14253;BME280;7210;51.502;10.722;2023-04-26T02:49:06;99544.00;;;0.90;100.00
14253;BME280;7210;51.502;10.722;2023-04-26T02:51:34;99541.72;;;0.87;100.00
14253;BME280;7210;51.502;10.722;2023-04-26T02:54:01;99537.34;;;0.80;100.00
14253;BME280;7210;51.502;10.722;2023-04-26T02:56:30;99535.88;;;0.77;100.00
14253;BME280;7210;51.502;10.722;2023-04-26T02:58:57;99529.72;;;0.70;100.00
14253;BME280;7210;51.502;10.722;2023-04-26T03:01:26;99527.78;;;0.64;100.00
14253;BME280;7210;51.502;10.722;2023-04-26T03:03:53;99522.91;;;0.61;100.00
14253;BME280;7210;51.502;10.722;2023-04-26T03:06:22;99527.78;;;0.56;100.00
14253;BME280;7210;51.502;10.722;2023-04-26T03:08:49;99520.81;;;0.57;100.00
14253;BME280;7210;51.502;10.722;2023-04-26T03:11:16;99536.91;;;0.60;100.00
14253;BME280;7210;51.502;10.722;2023-04-26T03:13:43;99538.53;;;0.61;100.00
14253;BME280;7210;51.502;10.722;2023-04-26T03:16:11;99534.31;;;0.60;100.00
14253;BME280;7210;51.502;10.722;2023-04-26T03:18:40;99531.06;;;0.58;100.00
14253;BME280;7210;51.502;10.722;2023-04-26T03:21:08;99532.34;;;0.54;100.00
14253;BME280;7210;51.502;10.722;2023-04-26T03:23:35;99529.09;;;0.52;100.00
14253;BME280;7210;51.502;10.722;2023-04-26T03:26:03;99530.72;;;0.53;100.00
14253;BME280;7210;51.502;10.722;2023-04-26T03:28:31;99532.34;;;0.54;100.00
14253;BME280;7210;51.502;10.722;2023-04-26T03:30:58;99525.19;;;0.56;100.00
14253;BME280;7210;51.502;10.722;2023-04-26T03:33:30;99520.47;;;0.52;100.00
14253;BME280;7210;51.502;10.722;2023-04-26T03:35:59;99529.75;;;0.46;100.00
14253;BME280;7210;51.502;10.722;2023-04-26T03:38:26;99533.00;;;0.48;100.00
14253;BME280;7210;51.502;10.722;2023-04-26T03:40:53;99536.59;;;0.47;100.00
14253;BME280;7210;51.502;10.722;2023-04-26T03:43:22;99536.59;;;0.47;100.00
14253;BME280;7210;51.502;10.722;2023-04-26T03:45:50;99528.44;;;0.42;100.00
14253;BME280;7210;51.502;10.722;2023-04-26T03:48:17;99535.31;;;0.43;100.00
14253;BME280;7210;51.502;10.722;2023-04-26T03:50:46;99533.66;;;0.42;100.00
14253;BME280;7210;51.502;10.722;2023-04-26T03:53:15;99526.53;;;0.36;100.00
14253;BME280;7210;51.502;10.722;2023-04-26T03:55:43;99530.56;;;0.31;100.00
14253;BME280;7210;51.502;10.722;2023-04-26T03:58:10;99524.91;;;0.27;100.00
14253;BME280;7210;51.502;10.722;2023-04-26T04:00:40;99534.00;;;0.23;100.00
14253;BME280;7210;51.502;10.722;2023-04-26T04:03:08;99534.34;;;0.20;100.00
14253;BME280;7210;51.502;10.722;2023-04-26T04:05:35;99541.47;;;0.18;100.00
14253;BME280;7210;51.502;10.722;2023-04-26T04:08:03;99543.41;;;0.16;100.00
14253;BME280;7210;51.502;10.722;2023-04-26T04:10:32;99550.09;;;0.19;100.00
14253;BME280;7210;51.502;10.722;2023-04-26T04:12:59;99550.56;;;0.22;100.00
14253;BME280;7210;51.502;10.722;2023-04-26T04:15:26;99550.22;;;0.25;100.00
14253;BME280;7210;51.502;10.722;2023-04-26T04:17:54;99549.75;;;0.30;100.00
14253;BME280;7210;51.502;10.722;2023-04-26T04:20:21;99557.38;;;0.31;100.00
14253;BME280;7210;51.502;10.722;2023-04-26T04:22:48;99552.53;;;0.36;100.00
14253;BME280;7210;51.502;10.722;2023-04-26T04:25:16;99558.69;;;0.43;100.00
14253;BME280;7210;51.502;10.722;2023-04-26T04:27:48;99546.00;;;0.40;100.00
14253;BME280;7210;51.502;10.722;2023-04-26T04:30:16;99554.44;;;0.42;100.00
14253;BME280;7210;51.502;10.722;2023-04-26T04:32:43;99548.44;;;0.42;100.00
14253;BME280;7210;51.502;10.722;2023-04-26T04:35:13;99552.81;;;0.41;100.00
14253;BME280;7210;51.502;10.722;2023-04-26T04:37:40;99547.63;;;0.41;100.00
14253;BME280;7210;51.502;10.722;2023-04-26T04:40:10;99551.22;;;0.40;100.00
14253;BME280;7210;51.502;10.722;2023-04-26T04:42:40;99557.22;;;0.41;100.00
14253;BME280;7210;51.502;10.722;2023-04-26T04:45:11;99546.84;;;0.41;100.00
14253;BME280;7210;51.502;10.722;2023-04-26T04:47:39;99549.59;;;0.39;100.00
14253;BME280;7210;51.502;10.722;2023-04-26T04:50:07;99556.88;;;0.52;100.00
14253;BME280;7210;51.502;10.722;2023-04-26T04:52:35;99566.50;;;0.59;100.00
14253;BME280;7210;51.502;10.722;2023-04-26T04:55:04;99564.19;;;0.64;100.00
14253;BME280;7210;51.502;10.722;2023-04-26T04:57:32;99571.50;;;0.69;100.00
14253;BME280;7210;51.502;10.722;2023-04-26T04:59:59;99570.03;;;0.74;100.00
14253;BME280;7210;51.502;10.722;2023-04-26T05:02:38;99577.16;;;0.80;100.00
14253;BME280;7210;51.502;10.722;2023-04-26T05:05:07;99574.56;;;0.88;100.00
14253;BME280;7210;51.502;10.722;2023-04-26T05:07:35;99568.53;;;0.96;100.00
14253;BME280;7210;51.502;10.722;2023-04-26T05:10:03;99579.72;;;1.12;100.00
14253;BME280;7210;51.502;10.722;2023-04-26T05:12:30;99578.72;;;1.21;100.00
14253;BME280;7210;51.502;10.722;2023-04-26T05:14:58;99580.16;;;1.32;100.00
14253;BME280;7210;51.502;10.722;2023-04-26T05:17:25;99591.31;;;1.40;100.00
14253;BME280;7210;51.502;10.722;2023-04-26T05:19:54;99589.69;;;1.47;100.00
14253;BME280;7210;51.502;10.722;2023-04-26T05:22:21;99596.78;;;1.61;100.00
14253;BME280;7210;51.502;10.722;2023-04-26T05:24:49;99592.16;;;1.71;100.00
14253;BME280;7210;51.502;10.722;2023-04-26T05:27:18;99589.69;;;1.78;100.00
14253;BME280;7210;51.502;10.722;2023-04-26T05:29:52;99592.09;;;1.87;100.00
14253;BME280;7210;51.502;10.722;2023-04-26T05:32:43;99602.41;;;2.03;100.00
14253;BME280;7210;51.502;10.722;2023-04-26T05:35:18;99589.63;;;2.16;100.00
14253;BME280;7210;51.502;10.722;2023-04-26T05:37:45;99598.84;;;2.27;100.00
14253;BME280;7210;51.502;10.722;2023-04-26T05:40:13;99594.03;;;2.38;100.00
14253;BME280;7210;51.502;10.722;2023-04-26T05:42:41;99593.59;;;2.49;100.00
14253;BME280;7210;51.502;10.722;2023-04-26T05:45:09;99593.22;;;2.60;100.00
14253;BME280;7210;51.502;10.722;2023-04-26T05:47:39;99597.63;;;2.74;100.00
14253;BME280;7210;51.502;10.722;2023-04-26T05:50:08;99599.00;;;2.85;100.00
14253;BME280;7210;51.502;10.722;2023-04-26T05:52:38;99597.16;;;2.93;100.00
14253;BME280;7210;51.502;10.722;2023-04-26T05:55:06;99609.31;;;3.15;100.00
14253;BME280;7210;51.502;10.722;2023-04-26T05:57:35;99601.31;;;3.31;100.00
14253;BME280;7210;51.502;10.722;2023-04-26T06:00:07;99598.69;;;3.46;100.00
14253;BME280;7210;51.502;10.722;2023-04-26T06:02:44;99599.75;;;3.65;100.00
14253;BME280;7210;51.502;10.722;2023-04-26T06:05:17;99585.66;;;3.81;100.00
14253;BME280;7210;51.502;10.722;2023-04-26T06:07:46;99576.72;;;3.90;100.00
14253;BME280;7210;51.502;10.722;2023-04-26T06:10:13;99557.06;;;3.94;100.00
14253;BME280;7210;51.502;10.722;2023-04-26T06:12:41;99559.69;;;4.15;100.00
14253;BME280;7210;51.502;10.722;2023-04-26T06:15:10;99563.59;;;4.25;100.00
14253;BME280;7210;51.502;10.722;2023-04-26T06:17:39;99555.44;;;4.35;100.00
14253;BME280;7210;51.502;10.722;2023-04-26T06:20:09;99547.47;;;4.43;100.00
14253;BME280;7210;51.502;10.722;2023-04-26T06:22:37;99547.31;;;4.51;100.00
14253;BME280;7210;51.502;10.722;2023-04-26T06:25:07;99546.19;;;4.60;100.00
14253;BME280;7210;51.502;10.722;2023-04-26T06:27:36;99546.81;;;4.62;100.00
14253;BME280;7210;51.502;10.722;2023-04-26T06:30:07;99530.72;;;4.65;100.00
14253;BME280;7210;51.502;10.722;2023-04-26T06:32:39;99537.44;;;4.74;100.00
14253;BME280;7210;51.502;10.722;2023-04-26T06:35:07;99525.59;;;4.78;100.00
14253;BME280;7210;51.502;10.722;2023-04-26T06:37:35;99518.38;;;4.86;100.00
14253;BME280;7210;51.502;10.722;2023-04-26T06:40:06;99515.56;;;4.88;99.06
14253;BME280;7210;51.502;10.722;2023-04-26T06:42:33;99517.63;;;4.92;98.54
14253;BME280;7210;51.502;10.722;2023-04-26T06:45:16;99522.53;;;5.02;98.29
14253;BME280;7210;51.502;10.722;2023-04-26T06:47:45;99519.13;;;5.08;97.94
14253;BME280;7210;51.502;10.722;2023-04-26T06:50:13;99522.81;;;5.20;97.08
14253;BME280;7210;51.502;10.722;2023-04-26T06:52:40;99520.25;;;5.33;96.65
14253;BME280;7210;51.502;10.722;2023-04-26T06:55:09;99517.25;;;5.36;95.65
14253;BME280;7210;51.502;10.722;2023-04-26T06:57:37;99513.00;;;5.35;94.61
14253;BME280;7210;51.502;10.722;2023-04-26T07:00:06;99512.25;;;5.47;94.09
14253;BME280;7210;51.502;10.722;2023-04-26T07:02:35;99528.88;;;5.67;94.18
14253;BME280;7210;51.502;10.722;2023-04-26T07:05:05;99529.34;;;5.84;93.08
14253;BME280;7210;51.502;10.722;2023-04-26T07:07:32;99497.25;;;5.82;91.64
14253;BME280;7210;51.502;10.722;2023-04-26T07:10:00;99490.00;;;5.84;90.67
14253;BME280;7210;51.502;10.722;2023-04-26T07:12:28;99476.09;;;5.90;89.88
14253;BME280;7210;51.502;10.722;2023-04-26T07:14:56;99480.13;;;5.99;89.50
14253;BME280;7210;51.502;10.722;2023-04-26T07:17:23;99483.19;;;6.15;88.39
14253;BME280;7210;51.502;10.722;2023-04-26T07:19:50;99491.47;;;6.32;88.16
14253;BME280;7210;51.502;10.722;2023-04-26T07:22:17;99489.84;;;6.37;87.07
14253;BME280;7210;51.502;10.722;2023-04-26T07:24:44;99462.78;;;6.30;86.56
14253;BME280;7210;51.502;10.722;2023-04-26T07:27:11;99472.50;;;6.36;85.96
14253;BME280;7210;51.502;10.722;2023-04-26T07:29:40;99450.88;;;6.28;84.92
14253;BME280;7210;51.502;10.722;2023-04-26T07:32:07;99470.84;;;6.35;85.03
14253;BME280;7210;51.502;10.722;2023-04-26T07:34:34;99488.25;;;6.56;84.24
14253;BME280;7210;51.502;10.722;2023-04-26T07:37:01;99497.69;;;6.70;84.12
14253;BME280;7210;51.502;10.722;2023-04-26T07:39:29;99458.72;;;6.54;83.60
14253;BME280;7210;51.502;10.722;2023-04-26T07:41:56;99458.34;;;6.57;82.66
14253;BME280;7210;51.502;10.722;2023-04-26T07:44:23;99438.13;;;6.57;82.00
14253;BME280;7210;51.502;10.722;2023-04-26T07:46:52;99488.56;;;6.92;81.62
14253;BME280;7210;51.502;10.722;2023-04-26T07:49:19;99496.19;;;7.13;80.97
14253;BME280;7210;51.502;10.722;2023-04-26T07:51:47;99459.03;;;7.03;80.72
14253;BME280;7210;51.502;10.722;2023-04-26T07:54:16;99429.56;;;6.88;79.74
14253;BME280;7210;51.502;10.722;2023-04-26T07:56:43;99398.50;;;6.72;79.81
14253;BME280;7210;51.502;10.722;2023-04-26T07:59:10;99424.78;;;6.72;79.13
14253;BME280;7210;51.502;10.722;2023-04-26T08:01:37;99469.56;;;6.96;78.88
14253;BME280;7210;51.502;10.722;2023-04-26T08:04:06;99491.69;;;7.26;78.51
14253;BME280;7210;51.502;10.722;2023-04-26T08:06:33;99474.13;;;7.27;78.06
14253;BME280;7210;51.502;10.722;2023-04-26T08:09:01;99476.66;;;7.39;77.58
14253;BME280;7210;51.502;10.722;2023-04-26T08:11:29;99382.94;;;7.21;76.35
14253;BME280;7210;51.502;10.722;2023-04-26T08:13:57;99355.91;;;7.01;75.75
14253;BME280;7210;51.502;10.722;2023-04-26T08:16:24;99381.44;;;6.94;75.79
14253;BME280;7210;51.502;10.722;2023-04-26T08:18:51;99419.78;;;7.08;75.72
14253;BME280;7210;51.502;10.722;2023-04-26T08:21:20;99453.91;;;7.21;75.08
14253;BME280;7210;51.502;10.722;2023-04-26T08:23:48;99487.81;;;7.35;75.22
14253;BME280;7210;51.502;10.722;2023-04-26T08:26:15;99552.97;;;7.83;74.95
14253;BME280;7210;51.502;10.722;2023-04-26T08:28:42;99478.00;;;7.92;73.79
14253;BME280;7210;51.502;10.722;2023-04-26T08:31:09;99355.88;;;7.44;72.75
14253;BME280;7210;51.502;10.722;2023-04-26T08:33:36;99388.56;;;7.24;73.44
14253;BME280;7210;51.502;10.722;2023-04-26T08:36:05;99428.78;;;7.31;73.04
14253;BME280;7210;51.502;10.722;2023-04-26T08:38:34;99323.31;;;7.15;71.81
14253;BME280;7210;51.502;10.722;2023-04-26T08:41:05;99279.09;;;7.05;70.49
14253;BME280;7210;51.502;10.722;2023-04-26T08:43:37;99387.94;;;7.28;70.90
14253;BME280;7210;51.502;10.722;2023-04-26T08:46:10;99450.06;;;7.67;70.49
14253;BME280;7210;51.502;10.722;2023-04-26T08:48:39;99418.09;;;7.94;69.35
14253;BME280;7210;51.502;10.722;2023-04-26T08:51:08;99378.06;;;8.10;68.17
14253;BME280;7210;51.502;10.722;2023-04-26T08:53:38;99334.47;;;8.14;67.32
14253;BME280;7210;51.502;10.722;2023-04-26T08:56:08;99259.88;;;8.02;66.27
14253;BME280;7210;51.502;10.722;2023-04-26T08:58:37;99340.97;;;8.12;66.83
14253;BME280;7210;51.502;10.722;2023-04-26T09:01:05;99377.53;;;8.26;66.58
14253;BME280;7210;51.502;10.722;2023-04-26T09:03:34;99460.91;;;8.39;66.85
14253;BME280;7210;51.502;10.722;2023-04-26T09:06:02;99516.81;;;8.65;67.13
14253;BME280;7210;51.502;10.722;2023-04-26T09:08:30;99448.66;;;8.87;64.91
14253;BME280;7210;51.502;10.722;2023-04-26T09:11:02;99488.88;;;9.00;65.44
14253;BME280;7210;51.502;10.722;2023-04-26T09:13:29;99499.41;;;9.00;65.39
14253;BME280;7210;51.502;10.722;2023-04-26T09:15:56;99437.16;;;8.81;64.78
14253;BME280;7210;51.502;10.722;2023-04-26T09:18:23;99373.31;;;8.61;63.84
14253;BME280;7210;51.502;10.722;2023-04-26T09:21:05;99443.91;;;8.35;65.53
14253;BME280;7210;51.502;10.722;2023-04-26T09:23:33;99582.78;;;8.21;67.22
14253;BME280;7210;51.502;10.722;2023-04-26T09:26:20;99714.16;;;8.42;68.02
14253;BME280;7210;51.502;10.722;2023-04-26T09:28:48;99698.50;;;8.54;67.25
14253;BME280;7210;51.502;10.722;2023-04-26T09:31:36;99736.06;;;8.74;66.89
14253;BME280;7210;51.502;10.722;2023-04-26T09:34:04;99708.75;;;8.99;66.23
14253;BME280;7210;51.502;10.722;2023-04-26T09:36:31;99685.19;;;9.04;65.61
14253;BME280;7210;51.502;10.722;2023-04-26T09:38:58;99725.53;;;9.11;65.71
14253;BME280;7210;51.502;10.722;2023-04-26T09:41:41;99693.13;;;8.98;65.81
14253;BME280;7210;51.502;10.722;2023-04-26T09:44:21;99624.66;;;8.91;64.51
14253;BME280;7210;51.502;10.722;2023-04-26T09:47:03;99624.09;;;8.83;64.69
14253;BME280;7210;51.502;10.722;2023-04-26T09:49:32;99600.59;;;8.81;63.70
14253;BME280;7210;51.502;10.722;2023-04-26T09:52:01;99605.75;;;8.70;64.12
14253;BME280;7210;51.502;10.722;2023-04-26T09:54:44;99656.69;;;8.64;64.53
14253;BME280;7210;51.502;10.722;2023-04-26T09:57:14;99627.13;;;8.55;64.10
14253;BME280;7210;51.502;10.722;2023-04-26T09:59:44;99571.16;;;8.29;63.69
14253;BME280;7210;51.502;10.722;2023-04-26T10:02:18;99603.84;;;8.15;64.44
14253;BME280;7210;51.502;10.722;2023-04-26T10:04:48;99637.31;;;8.01;64.89
14253;BME280;7210;51.502;10.722;2023-04-26T10:07:18;99668.31;;;7.99;64.87
14253;BME280;7210;51.502;10.722;2023-04-26T10:09:47;99726.59;;;8.09;65.06
14253;BME280;7210;51.502;10.722;2023-04-26T10:12:18;99785.31;;;8.16;65.18
14253;BME280;7210;51.502;10.722;2023-04-26T10:14:46;99826.06;;;8.33;65.57
14253;BME280;7210;51.502;10.722;2023-04-26T10:17:14;99868.31;;;8.58;65.71
14253;BME280;7210;51.502;10.722;2023-04-26T10:19:42;99858.34;;;8.79;64.86
14253;BME280;7210;51.502;10.722;2023-04-26T10:22:16;99746.16;;;8.83;63.54
14253;BME280;7210;51.502;10.722;2023-04-26T10:24:48;99765.16;;;8.98;63.23
14253;BME280;7210;51.502;10.722;2023-04-26T10:27:45;99767.84;;;9.23;62.84
14253;BME280;7210;51.502;10.722;2023-04-26T10:30:14;99798.09;;;9.45;62.66
14253;BME280;7210;51.502;10.722;2023-04-26T10:33:14;99658.16;;;9.33;61.21
14253;BME280;7210;51.502;10.722;2023-04-26T10:36:16;99689.41;;;9.36;61.49
14253;BME280;7210;51.502;10.722;2023-04-26T10:39:19;99602.91;;;9.20;60.70
14253;BME280;7210;51.502;10.722;2023-04-26T10:41:48;99582.06;;;9.12;60.40
14253;BME280;7210;51.502;10.722;2023-04-26T10:44:39;99634.38;;;9.15;60.51
14253;BME280;7210;51.502;10.722;2023-04-26T10:47:25;99653.31;;;9.30;60.38
14253;BME280;7210;51.502;10.722;2023-04-26T10:50:02;99690.63;;;9.58;59.87
14253;BME280;7210;51.502;10.722;2023-04-26T10:52:30;99735.22;;;9.84;59.85
14253;BME280;7210;51.502;10.722;2023-04-26T10:54:58;99687.50;;;10.04;59.18
14253;BME280;7210;51.502;10.722;2023-04-26T10:57:50;99622.56;;;9.96;58.52
14253;BME280;7210;51.502;10.722;2023-04-26T11:00:29;99669.06;;;9.97;58.84
14253;BME280;7210;51.502;10.722;2023-04-26T11:03:04;99749.91;;;10.23;59.03
14253;BME280;7210;51.502;10.722;2023-04-26T11:05:53;99671.56;;;10.28;58.02
14253;BME280;7210;51.502;10.722;2023-04-26T11:08:25;99584.69;;;10.02;57.45
14253;BME280;7210;51.502;10.722;2023-04-26T11:11:06;99528.69;;;9.82;57.32
14253;BME280;7210;51.502;10.722;2023-04-26T11:13:38;99459.91;;;9.77;55.89
14253;BME280;7210;51.502;10.722;2023-04-26T11:16:09;99466.78;;;9.78;55.48
14253;BME280;7210;51.502;10.722;2023-04-26T11:18:42;99567.13;;;9.96;56.10
14253;BME280;7210;51.502;10.722;2023-04-26T11:21:11;99376.75;;;9.57;55.03
14253;BME280;7210;51.502;10.722;2023-04-26T11:23:42;99612.16;;;9.83;56.56
14253;BME280;7210;51.502;10.722;2023-04-26T11:26:18;99731.16;;;10.24;56.94
14253;BME280;7210;51.502;10.722;2023-04-26T11:28:45;99617.25;;;10.32;55.36
14253;BME280;7210;51.502;10.722;2023-04-26T11:31:18;99618.28;;;10.31;55.31
14253;BME280;7210;51.502;10.722;2023-04-26T11:33:45;99683.59;;;10.42;56.01
14253;BME280;7210;51.502;10.722;2023-04-26T11:36:12;99703.72;;;10.43;56.26
14253;BME280;7210;51.502;10.722;2023-04-26T11:38:40;99633.19;;;10.26;55.86
14253;BME280;7210;51.502;10.722;2023-04-26T11:41:07;99618.75;;;10.10;56.41
14253;BME280;7210;51.502;10.722;2023-04-26T11:43:37;99766.25;;;10.13;57.52
14253;BME280;7210;51.502;10.722;2023-04-26T11:46:06;99716.56;;;10.22;56.61
14253;BME280;7210;51.502;10.722;2023-04-26T11:48:37;99712.53;;;10.19;56.66
14253;BME280;7210;51.502;10.722;2023-04-26T11:51:07;99742.31;;;10.26;56.73
14253;BME280;7210;51.502;10.722;2023-04-26T11:53:36;99688.22;;;10.29;55.80
14253;BME280;7210;51.502;10.722;2023-04-26T11:56:12;99747.63;;;10.44;56.07
14253;BME280;7210;51.502;10.722;2023-04-26T11:58:43;99788.72;;;10.58;56.12
14253;BME280;7210;51.502;10.722;2023-04-26T12:01:10;99811.69;;;10.76;55.81
14253;BME280;7210;51.502;10.722;2023-04-26T12:03:39;99762.34;;;10.70;55.67
14253;BME280;7210;51.502;10.722;2023-04-26T12:06:06;99768.69;;;10.80;55.38
14253;BME280;7210;51.502;10.722;2023-04-26T12:08:33;99713.19;;;10.92;54.24
14253;BME280;7210;51.502;10.722;2023-04-26T12:11:01;99735.66;;;11.01;54.26
14253;BME280;7210;51.502;10.722;2023-04-26T12:13:29;99627.50;;;10.81;53.64
14253;BME280;7210;51.502;10.722;2023-04-26T12:15:57;99670.25;;;10.78;54.23
14253;BME280;7210;51.502;10.722;2023-04-26T12:18:31;99730.06;;;10.79;54.87
14253;BME280;7210;51.502;10.722;2023-04-26T12:21:00;99700.72;;;10.69;54.75
14253;BME280;7210;51.502;10.722;2023-04-26T12:23:36;99701.28;;;10.71;54.33
14253;BME280;7210;51.502;10.722;2023-04-26T12:26:05;99595.72;;;10.58;53.30
14253;BME280;7210;51.502;10.722;2023-04-26T12:28:41;99606.31;;;10.58;53.05
14253;BME280;7210;51.502;10.722;2023-04-26T12:31:08;99688.56;;;10.80;53.62
14253;BME280;7210;51.502;10.722;2023-04-26T12:33:35;99766.91;;;10.92;54.38
14253;BME280;7210;51.502;10.722;2023-04-26T12:36:09;99788.16;;;11.15;54.02
14253;BME280;7210;51.502;10.722;2023-04-26T12:38:37;99731.38;;;11.29;53.00
14253;BME280;7210;51.502;10.722;2023-04-26T12:41:04;99790.91;;;11.49;53.27
14253;BME280;7210;51.502;10.722;2023-04-26T12:43:32;99845.19;;;11.70;53.52
14253;BME280;7210;51.502;10.722;2023-04-26T12:45:59;99791.75;;;11.73;52.96
14253;BME280;7210;51.502;10.722;2023-04-26T12:48:26;99713.44;;;11.54;52.80
14253;BME280;7210;51.502;10.722;2023-04-26T12:50:54;99704.06;;;11.28;53.37
14253;BME280;7210;51.502;10.722;2023-04-26T12:53:22;99624.66;;;11.06;52.80
14253;BME280;7210;51.502;10.722;2023-04-26T12:55:50;99527.81;;;10.70;52.53
14253;BME280;7210;51.502;10.722;2023-04-26T12:58:17;99519.59;;;10.37;52.94
14253;BME280;7210;51.502;10.722;2023-04-26T13:00:44;99602.66;;;10.41;53.23
14253;BME280;7210;51.502;10.722;2023-04-26T13:03:11;99674.22;;;10.58;53.37
14253;BME280;7210;51.502;10.722;2023-04-26T13:05:39;99770.31;;;10.81;53.78
14253;BME280;7210;51.502;10.722;2023-04-26T13:08:06;99790.91;;;11.09;53.25
14253;BME280;7210;51.502;10.722;2023-04-26T13:10:35;99804.75;;;11.22;53.22
14253;BME280;7210;51.502;10.722;2023-04-26T13:13:02;99839.19;;;11.63;52.60
14253;BME280;7210;51.502;10.722;2023-04-26T13:15:29;99837.97;;;11.77;52.44
14253;BME280;7210;51.502;10.722;2023-04-26T13:17:56;99641.72;;;11.44;51.25
14253;BME280;7210;51.502;10.722;2023-04-26T13:20:24;99584.53;;;11.20;51.06
14253;BME280;7210;51.502;10.722;2023-04-26T13:22:51;99570.97;;;11.05;51.24
14253;BME280;7210;51.502;10.722;2023-04-26T13:25:18;99598.75;;;10.96;51.86